Time;durP1;ratioP1;P1;durP2;ratioP2;P2;SDS_P1;SDS_P2;PMS_P1;PMS_P2;Temp;Humidity;BMP_temperature;BMP_pressure;BME280_temperature;BME280_humidity;BME280_pressure;Samples;Min_cycle;Max_cycle;Signal;HPM_P1;HPM_P2
2022/01/21 00:00:28;;;;;;;785.78;322.08;;;;;;;;;;5051439;28;20042;-74
2022/01/21 00:02:54;;;;;;;784.08;317.02;;;;;;;;;;5051796;28;20033;-74
2022/01/21 00:05:21;;;;;;;783.08;312.23;;;;;;;;;;5068611;28;20035;-74
2022/01/21 00:07:47;;;;;;;781.88;312.30;;;;;;;;;;5043490;28;20416;-74
2022/01/21 00:10:15;;;;;;;784.78;314.48;;;;;;;;;;5047411;28;20383;-74
2022/01/21 00:12:41;;;;;;;785.95;319.90;;;;;;;;;;5043130;28;20040;-74
2022/01/21 00:15:08;;;;;;;783.95;312.13;;;;;;;;;;5051878;28;20036;-74
2022/01/21 00:17:34;;;;;;;785.10;316.52;;;;;;;;;;5070138;28;20099;-74
2022/01/21 00:30:58;;;;;;;781.22;302.70;;;;;;;;;;5066692;28;20146;-74
2022/01/21 00:33:24;;;;;;;783.15;302.58;;;;;;;;;;5050098;28;20149;-74
2022/01/21 00:35:52;;;;;;;785.90;305.50;;;;;;;;;;5063939;28;20033;-74
2022/01/21 00:38:18;;;;;;;778.95;301.10;;;;;;;;;;5061476;28;20028;-74
2022/01/21 00:40:44;;;;;;;782.97;309.45;;;;;;;;;;5052160;28;20025;-74
2022/01/21 00:45:36;;;;;;;781.58;304.80;;;;;;;;;;5059615;28;20045;-74
2022/01/21 00:48:02;;;;;;;780.65;298.17;;;;;;;;;;5064789;28;20086;-74
2022/01/21 00:50:28;;;;;;;779.63;296.50;;;;;;;;;;5050818;28;20463;-74
2022/01/21 00:52:53;;;;;;;782.60;301.63;;;;;;;;;;5065337;28;20388;-74
2022/01/21 00:55:20;;;;;;;782.15;304.15;;;;;;;;;;5067357;28;20724;-74
2022/01/21 00:57:55;;;;;;;782.05;302.45;;;;;;;;;;5069797;28;20032;-74
2022/01/21 01:00:21;;;;;;;780.33;298.42;;;;;;;;;;5065550;28;20052;-74
2022/01/21 01:02:47;;;;;;;782.90;304.85;;;;;;;;;;5046028;28;20067;-74
2022/01/21 01:05:13;;;;;;;784.55;306.90;;;;;;;;;;5046385;28;20036;-74
2022/01/21 01:07:39;;;;;;;781.17;299.92;;;;;;;;;;5068067;28;20028;-74
2022/01/21 01:10:08;;;;;;;779.83;305.13;;;;;;;;;;5068033;28;20154;-74
2022/01/21 01:12:53;;;;;;;779.95;300.33;;;;;;;;;;5069165;28;20848;-74
2022/01/21 01:20:48;;;;;;;774.22;288.60;;;;;;;;;;5068268;28;20043;-74
2022/01/21 01:23:25;;;;;;;779.15;299.00;;;;;;;;;;5051528;28;20568;-74
2022/01/21 01:28:36;;;;;;;774.60;289.25;;;;;;;;;;5068409;28;20105;-73
2022/01/21 01:31:02;;;;;;;773.60;291.42;;;;;;;;;;5068082;28;20074;-74
2022/01/21 01:33:35;;;;;;;777.40;292.95;;;;;;;;;;5051319;28;20464;-74
2022/01/21 01:36:04;;;;;;;777.28;295.80;;;;;;;;;;5049648;28;20024;-74
2022/01/21 01:41:10;;;;;;;780.47;300.05;;;;;;;;;;5065123;28;20125;-74
2022/01/21 01:51:51;;;;;;;778.33;297.25;;;;;;;;;;5067297;28;20071;-74
2022/01/21 01:54:18;;;;;;;780.53;300.17;;;;;;;;;;5065760;28;20032;-74
2022/01/21 01:56:51;;;;;;;779.60;301.17;;;;;;;;;;5047334;28;20253;-74
2022/01/21 01:59:17;;;;;;;779.83;299.33;;;;;;;;;;5067970;28;20033;-74
2022/01/21 02:01:50;;;;;;;781.17;303.90;;;;;;;;;;5043670;28;20056;-74
2022/01/21 02:04:15;;;;;;;782.90;303.60;;;;;;;;;;5041004;28;20033;-74
2022/01/21 02:06:41;;;;;;;780.72;297.77;;;;;;;;;;5049632;28;20052;-74
2022/01/21 02:09:07;;;;;;;780.53;297.05;;;;;;;;;;5046656;28;20033;-74
2022/01/21 02:11:33;;;;;;;780.72;306.02;;;;;;;;;;5047691;28;20083;-74
2022/01/21 02:14:01;;;;;;;779.88;297.75;;;;;;;;;;5043041;28;20086;-74
2022/01/21 02:21:42;;;;;;;778.85;295.60;;;;;;;;;;5067873;28;20082;-74
2022/01/21 02:24:11;;;;;;;778.35;291.63;;;;;;;;;;5070820;28;20024;-74
2022/01/21 02:26:38;;;;;;;782.80;296.92;;;;;;;;;;5064792;28;20107;-74
2022/01/21 02:29:05;;;;;;;777.47;290.15;;;;;;;;;;5071003;28;20027;-74
2022/01/21 02:31:32;;;;;;;777.58;289.70;;;;;;;;;;5051246;28;20024;-74
2022/01/21 02:33:58;;;;;;;778.08;291.02;;;;;;;;;;5054495;28;20033;-73
2022/01/21 02:36:24;;;;;;;777.90;290.85;;;;;;;;;;5071420;28;20029;-74
2022/01/21 02:38:50;;;;;;;778.08;290.02;;;;;;;;;;5069502;28;20033;-74
2022/01/21 02:41:16;;;;;;;777.80;288.52;;;;;;;;;;5053806;28;20659;-74
2022/01/21 02:43:42;;;;;;;775.92;280.15;;;;;;;;;;5051468;28;20028;-74
2022/01/21 02:46:09;;;;;;;773.15;278.27;;;;;;;;;;5070957;28;20029;-74
2022/01/21 02:48:38;;;;;;;778.92;286.58;;;;;;;;;;5050407;28;20043;-74
2022/01/21 02:51:08;;;;;;;777.85;285.35;;;;;;;;;;5036145;28;20059;-74
2022/01/21 02:54:18;;;;;;;778.08;278.33;;;;;;;;;;5051393;28;20490;-74
2022/01/21 02:56:25;;;;;;;774.22;273.73;;;;;;;;;;5062356;28;20489;-74
2022/01/21 02:58:51;;;;;;;777.78;285.42;;;;;;;;;;5048180;28;20032;-74
2022/01/21 03:01:18;;;;;;;776.83;286.17;;;;;;;;;;5060940;28;20099;-74
2022/01/21 03:03:45;;;;;;;776.00;285.42;;;;;;;;;;5061014;28;20086;-74
2022/01/21 03:06:12;;;;;;;777.20;281.17;;;;;;;;;;5065817;28;20056;-74
2022/01/21 03:08:38;;;;;;;776.80;278.20;;;;;;;;;;5061768;28;20024;-74
2022/01/21 03:11:04;;;;;;;779.65;286.05;;;;;;;;;;5048745;28;20028;-74
2022/01/21 03:13:30;;;;;;;777.38;288.23;;;;;;;;;;5059537;28;20040;-74
2022/01/21 03:15:55;;;;;;;779.05;285.85;;;;;;;;;;5061112;28;20033;-74
2022/01/21 03:18:21;;;;;;;778.28;283.05;;;;;;;;;;5038401;28;20037;-74
2022/01/21 03:20:48;;;;;;;776.13;283.77;;;;;;;;;;5058136;28;20052;-74
2022/01/21 03:23:16;;;;;;;773.22;276.35;;;;;;;;;;5062717;28;20029;-74
2022/01/21 03:25:44;;;;;;;772.83;280.58;;;;;;;;;;5053178;28;20053;-74
2022/01/21 03:28:10;;;;;;;777.20;277.85;;;;;;;;;;5039860;28;20032;-74
2022/01/21 03:30:37;;;;;;;773.03;275.50;;;;;;;;;;5034744;28;20040;-74
2022/01/21 03:33:02;;;;;;;777.33;283.13;;;;;;;;;;5063063;28;20028;-74
2022/01/21 03:35:28;;;;;;;779.33;277.73;;;;;;;;;;5045984;28;20116;-74
2022/01/21 03:37:54;;;;;;;772.53;272.77;;;;;;;;;;5061874;28;20041;-74
2022/01/21 03:40:20;;;;;;;771.30;274.50;;;;;;;;;;5053753;28;20484;-74
2022/01/21 03:42:46;;;;;;;773.05;278.23;;;;;;;;;;5062800;28;20074;-74
2022/01/21 03:45:13;;;;;;;771.55;268.60;;;;;;;;;;5063499;28;20446;-74
2022/01/21 03:47:40;;;;;;;772.38;274.10;;;;;;;;;;5063994;28;20070;-74
2022/01/21 03:50:22;;;;;;;772.10;273.17;;;;;;;;;;5064412;28;20040;-74
2022/01/21 03:52:48;;;;;;;770.25;271.67;;;;;;;;;;5063823;28;20106;-74
2022/01/21 03:55:14;;;;;;;773.35;269.25;;;;;;;;;;5065062;28;20035;-74
2022/01/21 03:57:40;;;;;;;771.30;271.88;;;;;;;;;;5062647;28;20128;-74
2022/01/21 04:00:07;;;;;;;771.97;271.27;;;;;;;;;;5047806;28;20115;-74
2022/01/21 04:02:33;;;;;;;775.72;267.05;;;;;;;;;;5062884;28;20135;-74
2022/01/21 04:04:58;;;;;;;773.22;277.95;;;;;;;;;;5062080;28;20103;-74
2022/01/21 04:07:24;;;;;;;775.35;276.73;;;;;;;;;;5060976;28;20476;-74
2022/01/21 04:09:50;;;;;;;774.33;275.67;;;;;;;;;;5053496;28;20393;-74
2022/01/21 04:12:17;;;;;;;773.22;276.60;;;;;;;;;;5061346;28;20048;-74
2022/01/21 04:14:43;;;;;;;772.58;276.17;;;;;;;;;;5045649;28;20028;-74
2022/01/21 04:17:09;;;;;;;771.60;271.10;;;;;;;;;;5045618;28;20017;-74
2022/01/21 04:19:35;;;;;;;772.03;272.83;;;;;;;;;;5065194;28;20185;-74
2022/01/21 04:22:01;;;;;;;773.20;271.65;;;;;;;;;;5047625;28;20040;-74
2022/01/21 04:24:27;;;;;;;772.72;266.80;;;;;;;;;;5041747;28;20029;-74
2022/01/21 04:26:53;;;;;;;773.85;275.27;;;;;;;;;;5061832;28;20242;-74
2022/01/21 04:29:19;;;;;;;772.95;268.33;;;;;;;;;;5062650;28;20028;-74
2022/01/21 04:31:45;;;;;;;771.78;272.55;;;;;;;;;;5062788;28;20135;-74
2022/01/21 04:34:11;;;;;;;769.22;270.25;;;;;;;;;;5058486;28;20477;-74
2022/01/21 04:36:37;;;;;;;770.17;263.75;;;;;;;;;;5042035;28;20128;-74
2022/01/21 04:39:05;;;;;;;768.80;269.15;;;;;;;;;;5041042;28;20064;-74
2022/01/21 04:49:29;;;;;;;768.22;259.05;;;;;;;;;;5062553;28;20636;-73
2022/01/21 04:52:04;;;;;;;771.65;265.17;;;;;;;;;;5043721;28;20431;-73
2022/01/21 04:54:34;;;;;;;766.00;254.13;;;;;;;;;;5054403;28;20058;-74
2022/01/21 04:57:00;;;;;;;768.67;258.95;;;;;;;;;;5045626;28;20191;-74
2022/01/21 04:59:27;;;;;;;769.40;257.45;;;;;;;;;;5045109;28;20133;-74
2022/01/21 05:01:53;;;;;;;767.03;259.40;;;;;;;;;;5043909;28;20024;-73
2022/01/21 05:04:20;;;;;;;769.55;261.02;;;;;;;;;;5063995;28;20108;-74
2022/01/21 05:06:48;;;;;;;769.13;262.50;;;;;;;;;;5058001;28;20497;-74
2022/01/21 05:09:17;;;;;;;770.58;261.00;;;;;;;;;;5041713;28;20468;-74
2022/01/21 05:11:44;;;;;;;770.25;260.23;;;;;;;;;;5064306;28;20115;-74
2022/01/21 05:14:21;;;;;;;769.35;257.83;;;;;;;;;;5059964;28;20039;-73
2022/01/21 05:16:49;;;;;;;766.88;260.35;;;;;;;;;;5063108;28;20047;-74
2022/01/21 05:19:18;;;;;;;767.83;257.85;;;;;;;;;;5041597;28;20029;-74
2022/01/21 05:21:44;;;;;;;768.72;255.32;;;;;;;;;;5060708;28;20533;-74
2022/01/21 05:24:11;;;;;;;764.35;256.13;;;;;;;;;;5036279;28;20269;-74
2022/01/21 05:26:39;;;;;;;767.08;258.98;;;;;;;;;;5061549;28;20028;-74
2022/01/21 05:29:05;;;;;;;771.55;260.55;;;;;;;;;;5061572;28;20036;-73
2022/01/21 05:31:31;;;;;;;768.78;257.42;;;;;;;;;;5060198;28;20234;-74
2022/01/21 05:33:57;;;;;;;771.50;259.85;;;;;;;;;;5052771;28;20112;-74
2022/01/21 05:36:23;;;;;;;769.35;258.17;;;;;;;;;;5061670;28;20032;-74
2022/01/21 05:38:49;;;;;;;771.53;262.05;;;;;;;;;;5059245;28;20265;-74
2022/01/21 05:41:18;;;;;;;771.03;259.17;;;;;;;;;;5040749;28;20837;-74
2022/01/21 05:43:45;;;;;;;769.25;256.58;;;;;;;;;;5058975;28;20488;-73
2022/01/21 05:46:30;;;;;;;769.75;259.50;;;;;;;;;;5060967;28;20088;-74
2022/01/21 05:48:56;;;;;;;766.17;253.07;;;;;;;;;;5062172;28;20028;-74
2022/01/21 05:51:23;;;;;;;766.85;255.45;;;;;;;;;;5057304;28;20117;-74
2022/01/21 05:53:49;;;;;;;769.45;258.20;;;;;;;;;;5039328;28;20066;-74
2022/01/21 05:56:15;;;;;;;770.85;259.20;;;;;;;;;;5033069;28;20029;-74
2022/01/21 05:58:41;;;;;;;768.42;257.50;;;;;;;;;;5062273;28;20488;-74
2022/01/21 06:01:07;;;;;;;766.47;260.27;;;;;;;;;;5039723;28;20613;-74
2022/01/21 06:03:33;;;;;;;770.17;256.30;;;;;;;;;;5045356;28;20063;-74
2022/01/21 06:05:59;;;;;;;773.30;262.67;;;;;;;;;;5060329;28;20033;-74
2022/01/21 06:08:25;;;;;;;771.53;262.67;;;;;;;;;;5057964;28;20028;-74
2022/01/21 06:10:51;;;;;;;771.35;264.20;;;;;;;;;;5061205;28;20354;-74
2022/01/21 06:13:18;;;;;;;770.72;262.77;;;;;;;;;;5061180;28;20361;-74
2022/01/21 06:15:45;;;;;;;769.88;257.60;;;;;;;;;;5058101;28;20047;-74
2022/01/21 06:18:11;;;;;;;770.78;261.67;;;;;;;;;;5043678;28;20025;-74
2022/01/21 06:20:37;;;;;;;770.58;266.00;;;;;;;;;;5038945;28;20029;-74
2022/01/21 06:23:03;;;;;;;771.42;265.48;;;;;;;;;;5057953;28;20508;-74
2022/01/21 06:25:29;;;;;;;771.63;264.55;;;;;;;;;;5053768;28;20036;-74
2022/01/21 06:27:55;;;;;;;771.17;268.10;;;;;;;;;;5039986;28;20040;-74
2022/01/21 06:30:21;;;;;;;769.88;265.60;;;;;;;;;;5059447;28;20036;-74
2022/01/21 06:32:47;;;;;;;768.53;258.83;;;;;;;;;;5062587;28;20040;-74
2022/01/21 06:35:13;;;;;;;770.72;273.02;;;;;;;;;;5059591;28;20072;-74
2022/01/21 06:37:39;;;;;;;774.78;273.13;;;;;;;;;;5042477;28;20025;-74
2022/01/21 06:40:06;;;;;;;772.85;273.02;;;;;;;;;;5049659;28;20381;-74
2022/01/21 06:42:32;;;;;;;773.25;271.38;;;;;;;;;;5061563;28;20028;-74
2022/01/21 06:45:00;;;;;;;773.90;269.60;;;;;;;;;;5063206;28;20040;-74
2022/01/21 06:47:26;;;;;;;776.33;273.90;;;;;;;;;;5058390;28;20029;-74
2022/01/21 06:49:52;;;;;;;775.80;277.38;;;;;;;;;;5059844;28;20225;-74
2022/01/21 06:52:20;;;;;;;771.47;264.02;;;;;;;;;;5042670;28;20041;-74
2022/01/21 06:54:46;;;;;;;774.50;270.75;;;;;;;;;;5061119;28;22664;-74
2022/01/21 06:57:12;;;;;;;774.53;271.05;;;;;;;;;;5061309;28;20384;-74
2022/01/21 06:59:38;;;;;;;776.03;273.05;;;;;;;;;;5062228;28;20032;-74
2022/01/21 07:02:04;;;;;;;776.90;278.70;;;;;;;;;;5039568;28;20032;-74
2022/01/21 07:04:30;;;;;;;773.83;278.83;;;;;;;;;;5061528;28;20028;-74
2022/01/21 07:06:58;;;;;;;777.42;284.52;;;;;;;;;;5056458;28;20471;-74
2022/01/21 07:09:24;;;;;;;776.15;284.48;;;;;;;;;;5061111;28;20077;-74
2022/01/21 07:11:50;;;;;;;775.92;282.30;;;;;;;;;;5063592;28;20063;-74
2022/01/21 07:14:16;;;;;;;776.55;276.08;;;;;;;;;;5028973;28;20025;-74
2022/01/21 07:16:42;;;;;;;774.25;281.27;;;;;;;;;;5055150;28;20032;-74
2022/01/21 07:19:08;;;;;;;778.25;287.02;;;;;;;;;;5048259;28;20565;-74
2022/01/21 07:21:34;;;;;;;775.30;285.40;;;;;;;;;;5063935;28;20052;-74
2022/01/21 07:24:00;;;;;;;775.40;284.27;;;;;;;;;;5046779;28;20043;-74
2022/01/21 07:26:26;;;;;;;774.40;276.17;;;;;;;;;;5059404;28;20033;-74
2022/01/21 07:28:52;;;;;;;773.85;272.80;;;;;;;;;;5033593;28;20124;-74
2022/01/21 07:31:18;;;;;;;775.17;277.75;;;;;;;;;;5060573;28;20432;-74
2022/01/21 07:33:44;;;;;;;774.17;271.65;;;;;;;;;;5066717;28;20040;-74
2022/01/21 07:36:10;;;;;;;775.40;278.00;;;;;;;;;;5053134;28;20050;-74
2022/01/21 07:38:38;;;;;;;780.83;275.17;;;;;;;;;;5065988;28;20029;-74
2022/01/21 07:41:04;;;;;;;774.92;277.13;;;;;;;;;;5063782;28;20043;-74
2022/01/21 07:43:30;;;;;;;772.15;266.50;;;;;;;;;;5063721;28;20033;-74
2022/01/21 07:45:56;;;;;;;775.42;275.85;;;;;;;;;;5044416;28;20037;-74
2022/01/21 07:48:22;;;;;;;771.60;268.90;;;;;;;;;;5066203;28;20046;-74
2022/01/21 07:50:48;;;;;;;775.42;273.00;;;;;;;;;;5032467;28;20033;-74
2022/01/21 07:53:14;;;;;;;775.65;272.58;;;;;;;;;;5060109;28;20040;-74
2022/01/21 07:55:40;;;;;;;770.22;264.98;;;;;;;;;;5063971;28;20029;-74
2022/01/21 07:58:06;;;;;;;772.10;270.85;;;;;;;;;;5042999;28;20480;-74
2022/01/21 08:00:32;;;;;;;772.15;268.30;;;;;;;;;;5061923;28;20515;-74
2022/01/21 08:02:58;;;;;;;771.85;265.05;;;;;;;;;;5045633;28;20028;-74
2022/01/21 08:05:30;;;;;;;771.33;267.55;;;;;;;;;;5051749;28;20033;-74
2022/01/21 08:07:56;;;;;;;769.38;264.52;;;;;;;;;;5039027;28;20517;-74
2022/01/21 08:10:22;;;;;;;770.90;266.33;;;;;;;;;;5063549;28;20123;-74
2022/01/21 08:12:50;;;;;;;780.53;282.95;;;;;;;;;;5046120;28;20048;-74
2022/01/21 08:15:16;;;;;;;772.53;278.60;;;;;;;;;;5046126;28;20039;-74
2022/01/21 08:17:42;;;;;;;775.50;284.58;;;;;;;;;;5035994;28;20520;-74
2022/01/21 08:20:08;;;;;;;775.28;284.83;;;;;;;;;;5036749;28;20035;-74
2022/01/21 08:22:34;;;;;;;778.58;280.85;;;;;;;;;;5067556;28;20115;-74
2022/01/21 08:25:00;;;;;;;785.78;298.23;;;;;;;;;;5055244;28;20025;-74
2022/01/21 08:27:26;;;;;;;775.03;288.40;;;;;;;;;;5061622;28;20217;-75
2022/01/21 08:29:56;;;;;;;782.00;306.20;;;;;;;;;;5039554;28;20032;-74
2022/01/21 08:32:22;;;;;;;785.05;315.75;;;;;;;;;;5040559;28;20068;-75
2022/01/21 08:34:49;;;;;;;788.03;327.42;;;;;;;;;;5052568;28;20020;-74
2022/01/21 08:37:15;;;;;;;793.75;348.05;;;;;;;;;;5029823;28;20384;-75
2022/01/21 08:39:44;;;;;;;799.90;365.88;;;;;;;;;;5060135;28;20176;-74
2022/01/21 08:42:11;;;;;;;802.60;381.25;;;;;;;;;;5054409;28;20029;-74
2022/01/21 08:44:38;;;;;;;805.15;391.92;;;;;;;;;;5050596;28;20043;-74
2022/01/21 08:47:04;;;;;;;803.10;396.90;;;;;;;;;;5058385;28;20031;-79
2022/01/21 08:49:30;;;;;;;803.10;393.55;;;;;;;;;;5039435;28;20500;-75
2022/01/21 08:51:58;;;;;;;807.58;402.33;;;;;;;;;;5058275;28;20028;-75
2022/01/21 08:54:24;;;;;;;804.35;391.88;;;;;;;;;;5053504;28;20037;-74
2022/01/21 08:56:51;;;;;;;805.75;382.52;;;;;;;;;;5037735;28;20173;-75
2022/01/21 08:59:18;;;;;;;803.83;374.85;;;;;;;;;;5057207;28;20078;-74
2022/01/21 09:01:44;;;;;;;802.22;380.25;;;;;;;;;;5056829;28;20497;-74
2022/01/21 09:04:10;;;;;;;801.55;366.77;;;;;;;;;;5037847;28;20039;-74
2022/01/21 09:06:36;;;;;;;799.58;363.17;;;;;;;;;;5039950;28;20041;-74
2022/01/21 09:09:03;;;;;;;795.30;350.45;;;;;;;;;;5038134;28;20372;-74
2022/01/21 09:11:29;;;;;;;794.15;347.63;;;;;;;;;;5033402;28;20399;-75
2022/01/21 09:13:56;;;;;;;792.95;349.05;;;;;;;;;;5055723;28;20041;-74
2022/01/21 09:16:22;;;;;;;793.03;344.92;;;;;;;;;;5061906;28;20664;-74
2022/01/21 09:18:51;;;;;;;793.47;344.17;;;;;;;;;;5056248;28;20029;-74
2022/01/21 09:21:18;;;;;;;791.35;335.75;;;;;;;;;;5050478;28;20035;-74
2022/01/21 09:23:47;;;;;;;784.65;326.17;;;;;;;;;;5062137;28;20472;-74
2022/01/21 09:26:13;;;;;;;789.50;334.65;;;;;;;;;;5042001;28;20062;-74
2022/01/21 09:28:39;;;;;;;791.60;336.38;;;;;;;;;;5045900;28;20024;-74
2022/01/21 09:31:06;;;;;;;794.80;347.38;;;;;;;;;;5043986;28;20063;-74
2022/01/21 09:33:32;;;;;;;793.80;352.23;;;;;;;;;;5064409;28;20054;-74
2022/01/21 09:35:58;;;;;;;794.53;358.65;;;;;;;;;;5052867;28;20652;-74
2022/01/21 09:38:25;;;;;;;799.75;362.85;;;;;;;;;;5059037;28;20066;-73
2022/01/21 09:40:52;;;;;;;796.63;359.13;;;;;;;;;;5060464;28;20024;-74
2022/01/21 09:43:19;;;;;;;795.67;360.83;;;;;;;;;;5056334;28;20032;-73
2022/01/21 09:45:52;;;;;;;796.47;363.05;;;;;;;;;;5056767;28;20028;-74
2022/01/21 09:48:24;;;;;;;796.60;361.05;;;;;;;;;;5058121;28;20027;-74
2022/01/21 09:50:52;;;;;;;797.88;369.52;;;;;;;;;;5060008;28;20024;-74
2022/01/21 09:53:25;;;;;;;796.72;373.83;;;;;;;;;;5059198;28;20026;-74
2022/01/21 09:55:52;;;;;;;795.63;367.60;;;;;;;;;;5039111;28;20032;-74
2022/01/21 09:58:22;;;;;;;805.13;388.02;;;;;;;;;;5035192;28;20056;-74
2022/01/21 10:00:49;;;;;;;804.72;385.42;;;;;;;;;;5053404;28;20059;-73
2022/01/21 10:03:17;;;;;;;800.47;378.70;;;;;;;;;;5057924;28;20574;-74
2022/01/21 10:05:47;;;;;;;797.72;381.92;;;;;;;;;;5054459;28;20548;-73
2022/01/21 10:08:15;;;;;;;799.42;377.30;;;;;;;;;;5051996;28;20076;-74
2022/01/21 10:10:42;;;;;;;811.88;385.15;;;;;;;;;;5046620;28;20214;-74
2022/01/21 10:13:09;;;;;;;802.83;401.55;;;;;;;;;;5041222;28;20044;-74
2022/01/21 10:15:37;;;;;;;800.97;393.48;;;;;;;;;;5056679;28;20016;-74
2022/01/21 10:18:05;;;;;;;803.05;397.38;;;;;;;;;;5039674;28;20484;-74
2022/01/21 10:20:31;;;;;;;804.80;401.60;;;;;;;;;;5053460;28;20385;-74
2022/01/21 10:22:58;;;;;;;800.40;393.45;;;;;;;;;;5065326;28;20028;-74
2022/01/21 10:25:26;;;;;;;804.53;398.98;;;;;;;;;;5059871;28;20028;-73
2022/01/21 10:27:53;;;;;;;804.83;402.13;;;;;;;;;;5046447;28;20033;-73
2022/01/21 10:30:26;;;;;;;809.35;413.67;;;;;;;;;;5059999;28;20104;-74
2022/01/21 10:32:52;;;;;;;814.13;439.15;;;;;;;;;;5063303;28;20020;-74
2022/01/21 10:35:20;;;;;;;824.13;460.27;;;;;;;;;;5043549;28;20028;-74
2022/01/21 10:37:46;;;;;;;819.58;468.83;;;;;;;;;;5041096;28;20127;-73
2022/01/21 10:40:15;;;;;;;823.17;477.33;;;;;;;;;;5061996;28;20059;-73
2022/01/21 10:42:41;;;;;;;822.65;469.00;;;;;;;;;;5059952;28;20547;-73
2022/01/21 10:45:08;;;;;;;822.90;464.10;;;;;;;;;;5061767;28;20047;-73
2022/01/21 10:47:40;;;;;;;820.10;465.00;;;;;;;;;;5049434;28;20399;-73
2022/01/21 10:50:15;;;;;;;821.53;467.40;;;;;;;;;;5077228;28;20037;-73
2022/01/21 10:52:51;;;;;;;814.90;451.48;;;;;;;;;;5065843;28;20049;-73
2022/01/21 10:55:28;;;;;;;812.92;438.50;;;;;;;;;;5044784;28;20055;-73
2022/01/21 10:58:06;;;;;;;814.58;437.20;;;;;;;;;;5064949;28;20424;-73
2022/01/21 11:00:33;;;;;;;810.83;430.67;;;;;;;;;;5061762;28;20545;-73
2022/01/21 11:03:08;;;;;;;815.67;424.55;;;;;;;;;;5063666;28;20028;-73
2022/01/21 11:05:39;;;;;;;806.67;412.77;;;;;;;;;;5067890;28;20029;-73
2022/01/21 11:08:10;;;;;;;803.75;410.65;;;;;;;;;;5049488;28;20059;-73
2022/01/21 11:10:42;;;;;;;;;;;;;;;;;;5068398;28;20058;-73
2022/01/21 11:13:16;;;;;;;794.08;379.70;;;;;;;;;;5050130;28;19974;-74
2022/01/21 11:15:50;;;;;;;796.78;390.00;;;;;;;;;;5069186;28;20024;-73
2022/01/21 11:18:19;;;;;;;793.03;385.60;;;;;;;;;;5067016;28;20021;-73
2022/01/21 11:20:48;;;;;;;797.83;393.13;;;;;;;;;;5048237;28;20538;-73
2022/01/21 11:23:15;;;;;;;798.45;400.23;;;;;;;;;;5069777;28;20024;-73
2022/01/21 11:25:44;;;;;;;800.10;402.65;;;;;;;;;;5067364;28;20037;-73
2022/01/21 11:28:10;;;;;;;799.53;404.92;;;;;;;;;;5045320;28;20033;-73
2022/01/21 11:30:36;;;;;;;800.05;403.85;;;;;;;;;;5063435;28;20040;-73
2022/01/21 11:33:08;;;;;;;802.60;412.35;;;;;;;;;;5040875;28;20042;-73
2022/01/21 11:35:34;;;;;;;801.42;408.90;;;;;;;;;;5062849;28;20078;-73
2022/01/21 11:38:03;;;;;;;803.20;408.75;;;;;;;;;;5046413;28;20028;-73
2022/01/21 11:40:29;;;;;;;801.90;410.83;;;;;;;;;;5063803;28;20456;-73
2022/01/21 11:42:55;;;;;;;804.15;414.92;;;;;;;;;;5059614;28;20491;-73
2022/01/21 11:48:50;;;;;;;803.47;412.60;;;;;;;;;;5059012;28;20051;-73
2022/01/21 11:50:58;;;;;;;799.78;396.52;;;;;;;;;;5061545;28;20105;-73
2022/01/21 11:53:43;;;;;;;801.25;403.58;;;;;;;;;;5061477;28;20518;-74
2022/01/21 11:56:27;;;;;;;802.40;416.13;;;;;;;;;;5043571;28;20574;-73
2022/01/21 11:59:08;;;;;;;804.00;410.85;;;;;;;;;;5039924;28;20024;-74
2022/01/21 12:01:34;;;;;;;;;;;;;;;;;;5043334;28;20066;-74
2022/01/21 12:04:03;;;;;;;799.10;393.27;;;;;;;;;;5041910;28;19919;-73
2022/01/21 12:06:36;;;;;;;803.87;411.40;;;;;;;;;;5063012;28;20020;-73
2022/01/21 12:09:04;;;;;;;805.90;413.90;;;;;;;;;;5059046;28;20643;-73
2022/01/21 12:11:36;;;;;;;804.10;416.08;;;;;;;;;;5057611;28;20044;-72
2022/01/21 12:14:06;;;;;;;808.20;426.08;;;;;;;;;;5045724;28;20056;-73
2022/01/21 12:16:49;;;;;;;811.60;430.25;;;;;;;;;;5045590;28;20024;-73
2022/01/21 12:19:26;;;;;;;806.35;419.55;;;;;;;;;;5061986;28;20823;-73
2022/01/21 12:21:53;;;;;;;808.42;426.75;;;;;;;;;;5044974;28;20021;-73
2022/01/21 12:24:39;;;;;;;810.28;432.75;;;;;;;;;;5063176;28;20032;-73
2022/01/21 12:27:09;;;;;;;804.50;414.60;;;;;;;;;;5064290;28;20610;-73
2022/01/21 12:29:35;;;;;;;597.67;309.90;;;;;;;;;;5065729;28;20021;-73
2022/01/21 12:32:12;;;;;;;799.88;408.05;;;;;;;;;;5048547;28;20051;-73
2022/01/21 12:35:16;;;;;;;806.58;415.13;;;;;;;;;;5064290;28;20051;-73
2022/01/21 12:38:05;;;;;;;801.05;399.88;;;;;;;;;;5027148;28;20063;-73
2022/01/21 12:40:32;;;;;;;804.13;404.73;;;;;;;;;;5048965;28;20071;-73
2022/01/21 12:42:58;;;;;;;803.55;409.42;;;;;;;;;;5037313;28;20024;-73
2022/01/21 12:45:25;;;;;;;803.78;411.70;;;;;;;;;;5060566;28;20111;-73
2022/01/21 12:47:51;;;;;;;804.42;408.33;;;;;;;;;;5042655;28;20040;-73
2022/01/21 12:50:32;;;;;;;804.58;416.13;;;;;;;;;;5040128;28;20032;-73
2022/01/21 12:58:20;;;;;;;811.42;433.48;;;;;;;;;;5059326;28;20400;-73
2022/01/21 13:00:47;;;;;;;811.65;437.10;;;;;;;;;;5056175;28;20305;-73
2022/01/21 13:03:22;;;;;;;815.30;450.17;;;;;;;;;;5057796;28;20040;-76
2022/01/21 13:05:56;;;;;;;816.72;445.55;;;;;;;;;;5062232;28;20031;-75
2022/01/21 13:08:38;;;;;;;813.00;440.83;;;;;;;;;;5039947;28;20086;-74
2022/01/21 13:11:16;;;;;;;807.70;431.88;;;;;;;;;;5062557;28;20095;-73
2022/01/21 13:14:01;;;;;;;814.25;439.25;;;;;;;;;;5033407;28;20707;-73
2022/01/21 13:16:31;;;;;;;808.00;428.45;;;;;;;;;;5031151;28;20238;-74
2022/01/21 13:19:01;;;;;;;812.47;433.52;;;;;;;;;;5033605;28;20503;-73
2022/01/21 13:21:27;;;;;;;811.28;426.98;;;;;;;;;;5034265;28;20037;-73
2022/01/21 13:24:12;;;;;;;810.92;432.75;;;;;;;;;;5032657;28;20041;-73
2022/01/21 13:26:40;;;;;;;814.35;442.27;;;;;;;;;;5030943;28;20423;-73
2022/01/21 13:29:11;;;;;;;808.58;428.50;;;;;;;;;;5032250;28;20301;-73
2022/01/21 13:31:48;;;;;;;805.88;422.67;;;;;;;;;;5032094;28;20035;-74
2022/01/21 13:34:25;;;;;;;811.00;431.10;;;;;;;;;;5033121;28;20032;-73
2022/01/21 13:36:57;;;;;;;811.35;428.08;;;;;;;;;;5032793;28;20021;-73
2022/01/21 13:39:39;;;;;;;808.47;421.27;;;;;;;;;;5030960;28;20028;-73
2022/01/21 13:42:11;;;;;;;812.35;431.92;;;;;;;;;;5036219;28;20029;-73
2022/01/21 13:44:47;;;;;;;819.53;435.48;;;;;;;;;;5033779;28;20534;-73
2022/01/21 13:47:28;;;;;;;807.70;423.73;;;;;;;;;;5035236;28;20082;-73
2022/01/21 13:49:56;;;;;;;812.10;427.95;;;;;;;;;;5034293;28;20033;-73
2022/01/21 13:52:33;;;;;;;813.47;429.67;;;;;;;;;;5029904;28;20048;-74
2022/01/21 13:54:59;;;;;;;809.83;431.65;;;;;;;;;;5031665;28;20653;-73
2022/01/21 13:57:27;;;;;;;814.83;438.33;;;;;;;;;;5034761;28;20428;-73
2022/01/21 13:59:52;;;;;;;813.03;431.63;;;;;;;;;;5037996;28;20032;-73
2022/01/21 14:02:18;;;;;;;809.97;424.60;;;;;;;;;;5033838;28;20033;-73
2022/01/21 14:04:54;;;;;;;809.90;424.13;;;;;;;;;;5031311;28;20033;-73
2022/01/21 14:07:30;;;;;;;812.33;425.35;;;;;;;;;;5031023;28;20052;-72
2022/01/21 14:09:57;;;;;;;812.25;419.83;;;;;;;;;;5035676;28;20034;-72
2022/01/21 14:12:24;;;;;;;810.13;420.33;;;;;;;;;;5047749;28;20044;-72
2022/01/21 14:14:51;;;;;;;811.30;433.92;;;;;;;;;;5044667;28;20684;-73
2022/01/21 14:17:24;;;;;;;813.28;434.77;;;;;;;;;;5066903;28;20020;-72
2022/01/21 14:19:52;;;;;;;809.42;426.98;;;;;;;;;;5068105;28;20480;-73
2022/01/21 14:22:19;;;;;;;814.05;431.58;;;;;;;;;;5067039;28;20077;-72
2022/01/21 14:24:46;;;;;;;815.20;428.25;;;;;;;;;;5065400;28;20052;-73
2022/01/21 14:27:20;;;;;;;806.45;414.75;;;;;;;;;;5042462;28;20431;-78
2022/01/21 14:29:50;;;;;;;803.15;409.35;;;;;;;;;;5064759;28;20032;-73
2022/01/21 14:32:26;;;;;;;813.03;425.90;;;;;;;;;;5064827;28;20742;-73
2022/01/21 14:35:04;;;;;;;808.20;419.38;;;;;;;;;;5046839;28;20036;-74
2022/01/21 14:37:30;;;;;;;807.92;421.75;;;;;;;;;;5043520;28;20038;-73
2022/01/21 14:40:00;;;;;;;809.40;418.75;;;;;;;;;;5064250;28;20228;-73
2022/01/21 14:42:26;;;;;;;812.03;425.60;;;;;;;;;;5044149;28;20058;-73
2022/01/21 14:45:00;;;;;;;806.58;415.13;;;;;;;;;;5061037;28;20044;-73
2022/01/21 14:47:28;;;;;;;811.80;424.58;;;;;;;;;;5047294;28;20032;-73
2022/01/21 14:50:02;;;;;;;812.67;429.70;;;;;;;;;;5063329;28;20032;-73
2022/01/21 14:52:46;;;;;;;813.92;429.30;;;;;;;;;;5063738;28;20465;-74
2022/01/21 14:55:19;;;;;;;811.90;429.25;;;;;;;;;;5064228;28;20488;-73